createdAt,value
2023-01-13T00:01:29.040Z,91.32
2023-01-13T00:03:57.613Z,91.61
2023-01-13T00:06:26.523Z,91.62
2023-01-13T00:08:55.011Z,91.65
2023-01-13T00:11:23.597Z,92.02
2023-01-13T00:13:51.687Z,92.11
2023-01-13T00:16:20.965Z,92.31
2023-01-13T00:18:51.241Z,92.34
2023-01-13T00:21:24.624Z,92.35
2023-01-13T00:23:54.031Z,92.31
2023-01-13T00:26:24.625Z,91.84
2023-01-13T00:28:58.216Z,91.59
2023-01-13T00:31:27.525Z,91.86
2023-01-13T00:34:00.506Z,91.63
2023-01-13T00:36:29.557Z,91.65
2023-01-13T00:38:58.317Z,91.63
2023-01-13T00:41:27.515Z,91.70
2023-01-13T00:43:55.516Z,91.78
2023-01-13T00:46:23.950Z,92.10
2023-01-13T00:48:52.332Z,92.39
2023-01-13T00:51:21.990Z,92.71
2023-01-13T00:53:51.902Z,92.55
2023-01-13T00:56:38.584Z,92.21
2023-01-13T00:59:12.515Z,92.38
2023-01-13T01:01:41.579Z,92.46
2023-01-13T01:04:09.857Z,92.35
2023-01-13T01:06:38.352Z,92.19
2023-01-13T01:09:06.557Z,91.67
2023-01-13T01:11:35.040Z,91.44
2023-01-13T01:14:04.149Z,91.65
2023-01-13T01:16:34.137Z,91.91
2023-01-13T01:19:03.532Z,91.69
2023-01-13T01:21:32.720Z,91.53
2023-01-13T01:24:02.693Z,91.76
2023-01-13T01:26:32.017Z,92.06
2023-01-13T01:29:02.350Z,92.19
2023-01-13T01:31:33.379Z,92.26
2023-01-13T01:34:01.734Z,92.28
2023-01-13T01:36:30.398Z,92.17
2023-01-13T01:38:59.508Z,91.92
2023-01-13T01:41:30.531Z,91.92
2023-01-13T01:44:08.036Z,92.04
2023-01-13T01:46:40.266Z,91.95
2023-01-13T01:49:14.232Z,91.71
2023-01-13T01:52:04.574Z,91.65
2023-01-13T01:54:48.583Z,91.46
2023-01-13T01:57:44.036Z,91.70
2023-01-13T02:00:13.303Z,91.55
2023-01-13T02:02:45.571Z,91.56
2023-01-13T02:05:14.485Z,91.83
2023-01-13T02:07:44.699Z,91.95
2023-01-13T02:10:15.596Z,91.92
2023-01-13T02:12:45.434Z,91.90
2023-01-13T02:15:17.943Z,91.85
2023-01-13T02:18:06.306Z,91.99
2023-01-13T02:20:59.220Z,92.05
2023-01-13T02:23:54.793Z,92.14
2023-01-13T02:26:40.902Z,92.34
2023-01-13T02:30:05.171Z,92.51
2023-01-13T02:32:51.559Z,92.63
2023-01-13T02:35:36.027Z,92.55
2023-01-13T02:38:05.604Z,92.60
2023-01-13T02:40:59.191Z,92.41
2023-01-13T02:43:48.869Z,92.07
2023-01-13T02:46:31.780Z,91.97
2023-01-13T02:49:05.818Z,92.30
2023-01-13T02:51:35.515Z,92.32
2023-01-13T02:54:13.431Z,92.73
2023-01-13T02:56:47.541Z,92.59
2023-01-13T02:59:15.986Z,92.58
2023-01-13T03:01:44.211Z,92.49
2023-01-13T03:04:14.624Z,92.62
2023-01-13T03:07:01.816Z,92.82
2023-01-13T03:09:36.315Z,92.86
2023-01-13T03:12:14.402Z,92.62
2023-01-13T03:14:55.844Z,92.63
2023-01-13T03:17:32.867Z,92.68
2023-01-13T03:20:09.263Z,92.42
2023-01-13T03:22:50.087Z,92.14
2023-01-13T03:25:26.286Z,91.68
2023-01-13T03:28:31.220Z,91.04
2023-01-13T03:31:08.222Z,91.25
2023-01-13T03:34:09.836Z,91.03
2023-01-13T03:36:41.780Z,90.88
2023-01-13T03:39:16.205Z,90.88
2023-01-13T03:41:57.432Z,90.87
2023-01-13T03:44:36.866Z,91.34
2023-01-13T03:47:23.530Z,91.81
2023-01-13T03:50:01.144Z,91.45
2023-01-13T03:52:39.723Z,91.38
2023-01-13T03:55:13.468Z,91.75
2023-01-13T03:57:49.750Z,91.72
2023-01-13T04:00:19.693Z,91.67
2023-01-13T04:02:50.567Z,91.15
2023-01-13T04:05:19.321Z,91.10
2023-01-13T04:08:02.836Z,91.37
2023-01-13T04:11:02.707Z,91.33
2023-01-13T04:13:35.567Z,91.62
2023-01-13T04:16:07.769Z,91.86
2023-01-13T04:18:38.723Z,91.97
2023-01-13T04:21:08.077Z,91.88
2023-01-13T04:23:36.074Z,91.50
2023-01-13T04:26:04.663Z,91.63
2023-01-13T04:28:34.923Z,91.57
2023-01-13T04:31:03.122Z,91.70
2023-01-13T04:33:31.149Z,91.77
2023-01-13T04:35:59.147Z,91.60
2023-01-13T04:38:27.356Z,91.46
2023-01-13T04:40:55.586Z,91.50
2023-01-13T04:43:23.579Z,91.57
2023-01-13T04:45:51.651Z,91.53
2023-01-13T04:48:19.959Z,91.53
2023-01-13T04:50:48.178Z,91.91
2023-01-13T04:53:16.439Z,91.81
2023-01-13T04:55:44.610Z,91.69
2023-01-13T04:58:12.624Z,91.83
2023-01-13T05:00:40.757Z,91.95
2023-01-13T05:03:08.806Z,91.53
2023-01-13T05:05:38.093Z,91.39
2023-01-13T05:08:06.463Z,92.07
2023-01-13T05:10:34.887Z,92.41
2023-01-13T05:13:21.410Z,92.17
2023-01-13T05:16:06.698Z,91.98
2023-01-13T05:18:35.082Z,91.38
2023-01-13T05:21:03.196Z,91.08
2023-01-13T05:23:49.725Z,91.58
2023-01-13T05:26:17.850Z,91.51
2023-01-13T05:28:45.860Z,91.25
2023-01-13T05:31:15.161Z,91.31
2023-01-13T05:33:43.230Z,91.59
2023-01-13T05:36:11.199Z,91.70
2023-01-13T05:38:39.256Z,91.18
2023-01-13T05:41:26.681Z,91.06
2023-01-13T05:43:54.890Z,91.53
2023-01-13T05:46:23.015Z,91.61
2023-01-13T05:48:51.099Z,91.39
2023-01-13T05:51:22.576Z,91.83
2023-01-13T05:53:50.595Z,91.81
2023-01-13T05:56:18.643Z,91.92
2023-01-13T05:58:46.847Z,92.05
2023-01-13T06:01:14.873Z,92.14
2023-01-13T06:03:42.948Z,91.49
2023-01-13T06:06:11.069Z,91.24
2023-01-13T06:08:39.953Z,91.42
2023-01-13T06:11:08.512Z,91.30
2023-01-13T06:13:36.726Z,91.72
2023-01-13T06:16:05.233Z,91.51
2023-01-13T06:18:33.408Z,91.46
2023-01-13T06:21:01.596Z,91.05
2023-01-13T06:23:29.775Z,90.99
2023-01-13T06:26:10.281Z,91.03
2023-01-13T06:28:38.435Z,91.36
2023-01-13T06:31:08.470Z,91.75
2023-01-13T06:33:40.893Z,91.78
2023-01-13T06:36:22.349Z,91.57
2023-01-13T06:38:55.100Z,91.64
2023-01-13T06:41:44.252Z,91.86
2023-01-13T06:44:12.529Z,92.21
2023-01-13T06:46:40.829Z,92.20
2023-01-13T06:49:09.017Z,92.21
2023-01-13T06:51:37.308Z,92.30
2023-01-13T06:54:05.776Z,92.72
2023-01-13T06:56:33.842Z,92.99
2023-01-13T06:59:01.974Z,93.12
2023-01-13T07:01:30.531Z,93.11
2023-01-13T07:03:58.778Z,93.53
2023-01-13T07:06:26.832Z,94.12
2023-01-13T07:08:55.351Z,93.82
2023-01-13T07:11:23.507Z,93.97
2023-01-13T07:14:10.271Z,94.20
2023-01-13T07:16:38.549Z,93.64
2023-01-13T07:19:06.636Z,93.32
2023-01-13T07:21:34.847Z,92.32
2023-01-13T07:24:02.903Z,91.71
2023-01-13T07:26:30.984Z,92.09
2023-01-13T07:28:59.101Z,92.43
2023-01-13T07:31:27.187Z,92.27
2023-01-13T07:33:55.420Z,92.20
2023-01-13T07:36:23.418Z,92.38
2023-01-13T07:38:53.295Z,91.70
2023-01-13T07:41:41.441Z,91.08
2023-01-13T07:44:10.877Z,90.57
2023-01-13T07:46:39.971Z,90.70
2023-01-13T07:49:09.117Z,91.25
2023-01-13T07:51:40.546Z,91.82
2023-01-13T07:54:08.668Z,91.52
2023-01-13T07:56:36.822Z,91.64
2023-01-13T07:59:05.142Z,91.45
2023-01-13T08:01:33.502Z,91.58
2023-01-13T08:04:01.713Z,90.94
2023-01-13T08:06:29.874Z,90.41
2023-01-13T08:08:58.823Z,90.24
2023-01-13T08:11:26.781Z,90.11
2023-01-13T08:13:58.240Z,89.69
2023-01-13T08:16:26.523Z,90.44
2023-01-13T08:18:54.761Z,91.21
2023-01-13T08:21:22.968Z,91.36
2023-01-13T08:23:50.990Z,90.92
2023-01-13T08:26:19.200Z,90.58
2023-01-13T08:28:47.328Z,90.29
2023-01-13T08:31:17.183Z,89.91
2023-01-13T08:33:45.948Z,90.07
2023-01-13T08:36:14.294Z,89.78
2023-01-13T08:38:42.570Z,90.07
2023-01-13T08:41:15.977Z,89.98
2023-01-13T08:43:43.865Z,89.29
2023-01-13T08:46:12.480Z,88.16
2023-01-13T08:48:40.665Z,87.74
2023-01-13T08:51:09.398Z,87.82
2023-01-13T08:53:37.540Z,88.16
2023-01-13T08:56:13.307Z,87.82
2023-01-13T08:58:41.393Z,87.88
2023-01-13T09:01:14.005Z,87.38
2023-01-13T09:03:42.352Z,87.41
2023-01-13T09:06:10.537Z,87.57
2023-01-13T09:08:38.752Z,87.48
2023-01-13T09:11:26.939Z,87.78
2023-01-13T09:13:55.242Z,87.90
2023-01-13T09:16:23.338Z,87.10
2023-01-13T09:18:51.494Z,87.13
2023-01-13T09:21:21.128Z,87.17
2023-01-13T09:23:49.363Z,86.11
2023-01-13T09:26:20.848Z,84.76
2023-01-13T09:28:49.272Z,84.80
2023-01-13T09:31:17.428Z,82.67
2023-01-13T09:34:04.174Z,84.25
2023-01-13T09:36:32.251Z,83.86
2023-01-13T09:39:00.350Z,83.99
2023-01-13T09:41:49.805Z,83.23
2023-01-13T09:44:25.531Z,82.02
2023-01-13T09:47:00.204Z,81.96
2023-01-13T09:49:38.777Z,80.49
2023-01-13T09:52:19.808Z,77.98
2023-01-13T09:55:10.244Z,78.40
2023-01-13T09:57:39.972Z,78.54
2023-01-13T10:00:16.033Z,77.30
2023-01-13T10:03:07.153Z,78.08
2023-01-13T10:05:39.191Z,77.50
2023-01-13T10:08:37.840Z,75.00
2023-01-13T10:11:31.083Z,70.08
2023-01-13T10:14:02.641Z,67.43
2023-01-13T10:16:36.748Z,64.93
2023-01-13T10:19:27.657Z,66.10
2023-01-13T10:21:55.628Z,66.32
2023-01-13T10:24:42.241Z,64.83
2023-01-13T10:27:25.465Z,64.04
2023-01-13T10:29:53.437Z,62.60
2023-01-13T10:32:21.472Z,59.83
2023-01-13T10:34:51.709Z,60.99
2023-01-13T10:37:28.324Z,61.66
2023-01-13T10:40:00.828Z,58.98
2023-01-13T10:42:29.250Z,59.90
2023-01-13T10:45:00.013Z,57.87
2023-01-13T10:47:34.406Z,56.64
2023-01-13T10:50:17.175Z,55.51
2023-01-13T10:53:03.339Z,55.66
2023-01-13T10:55:37.271Z,55.92
2023-01-13T10:58:19.590Z,55.14
2023-01-13T11:00:49.498Z,53.69
2023-01-13T11:03:22.061Z,52.42
2023-01-13T11:05:59.254Z,52.97
2023-01-13T11:08:49.366Z,52.03
2023-01-13T11:11:28.475Z,52.91
2023-01-13T11:14:21.102Z,53.17
2023-01-13T11:16:53.989Z,51.49
2023-01-13T11:19:24.076Z,51.25
2023-01-13T11:22:05.899Z,49.88
2023-01-13T11:24:51.146Z,49.96
2023-01-13T11:28:08.497Z,49.32
2023-01-13T11:31:35.155Z,48.42
2023-01-13T11:34:08.168Z,47.93
2023-01-13T11:36:43.650Z,46.97
2023-01-13T11:39:27.065Z,47.16
2023-01-13T11:42:20.070Z,47.29
2023-01-13T11:45:06.409Z,46.45
2023-01-13T11:47:36.190Z,46.78
2023-01-13T11:50:13.865Z,46.17
2023-01-13T11:52:47.892Z,46.96
2023-01-13T11:55:31.157Z,46.64
2023-01-13T11:58:24.974Z,45.66
2023-01-13T12:01:05.252Z,45.14
2023-01-13T12:03:46.400Z,45.54
2023-01-13T12:06:31.859Z,46.16
2023-01-13T12:09:18.532Z,45.99
2023-01-13T12:12:19.454Z,46.28
2023-01-13T12:14:56.596Z,46.34
2023-01-13T12:17:51.392Z,45.22
2023-01-13T12:20:44.169Z,44.02
2023-01-13T12:23:34.893Z,43.73
2023-01-13T12:26:12.174Z,42.19
2023-01-13T12:29:19.089Z,41.88
2023-01-13T12:31:51.453Z,40.94
2023-01-13T12:35:06.055Z,41.01
2023-01-13T12:38:02.602Z,41.79
2023-01-13T12:41:07.264Z,43.79
2023-01-13T12:43:56.503Z,45.49
2023-01-13T12:46:24.762Z,44.63
2023-01-13T12:48:57.208Z,44.00
2023-01-13T12:51:38.204Z,43.58
2023-01-13T12:54:31.300Z,43.47
2023-01-13T12:56:59.977Z,41.68
2023-01-13T12:59:27.909Z,42.35
2023-01-13T13:02:11.169Z,42.39
2023-01-13T13:04:49.692Z,42.02
2023-01-13T13:07:26.727Z,43.27
2023-01-13T13:09:59.959Z,42.89
2023-01-13T13:12:49.763Z,43.09
2023-01-13T13:15:26.591Z,44.68
2023-01-13T13:18:00.619Z,45.02
2023-01-13T13:20:58.303Z,46.17
2023-01-13T13:23:29.487Z,45.26
2023-01-13T13:26:06.626Z,45.35
2023-01-13T13:28:40.241Z,42.94
2023-01-13T13:31:18.792Z,44.29
2023-01-13T13:33:50.314Z,46.45
2023-01-13T13:36:21.483Z,49.52
2023-01-13T13:39:42.400Z,52.93
2023-01-13T13:42:34.454Z,55.16
2023-01-13T13:45:30.595Z,56.92
2023-01-13T13:47:58.592Z,58.77
2023-01-13T13:50:26.752Z,60.38
2023-01-13T13:53:07.112Z,61.83
2023-01-13T13:55:36.762Z,62.72
2023-01-13T13:58:05.848Z,63.54
2023-01-13T14:00:36.033Z,64.52
2023-01-13T14:03:07.902Z,65.15
2023-01-13T14:05:37.354Z,65.75
2023-01-13T14:08:17.024Z,66.47
2023-01-13T14:10:46.322Z,67.13
2023-01-13T14:13:18.297Z,68.75
2023-01-13T14:15:48.536Z,68.69
2023-01-13T14:18:21.208Z,68.86
2023-01-13T14:20:59.621Z,68.67
2023-01-13T14:23:30.414Z,68.45
2023-01-13T14:26:13.023Z,69.00
2023-01-13T14:28:42.384Z,68.77
2023-01-13T14:31:12.855Z,68.99
2023-01-13T14:33:46.355Z,69.24
2023-01-13T14:36:24.001Z,69.13
2023-01-13T14:39:04.188Z,69.62
2023-01-13T14:41:48.259Z,69.84
2023-01-13T14:44:28.490Z,70.12
2023-01-13T14:46:59.078Z,70.33
2023-01-13T14:49:39.568Z,70.52
2023-01-13T14:52:21.462Z,70.91
2023-01-13T14:54:50.857Z,71.24
2023-01-13T14:57:31.427Z,71.31
2023-01-13T15:00:14.851Z,71.73
2023-01-13T15:02:53.590Z,71.96
2023-01-13T15:05:24.459Z,73.35
2023-01-13T15:07:59.430Z,73.39
2023-01-13T15:10:38.299Z,73.80
2023-01-13T15:13:07.410Z,74.31
2023-01-13T15:15:37.982Z,75.28
2023-01-13T15:18:13.840Z,75.71
2023-01-13T15:20:42.064Z,75.65
2023-01-13T15:23:11.420Z,75.75
2023-01-13T15:25:42.021Z,76.22
2023-01-13T15:28:29.012Z,76.27
2023-01-13T15:31:00.731Z,76.62
2023-01-13T15:33:29.004Z,76.73
2023-01-13T15:35:57.074Z,76.65
2023-01-13T15:38:25.117Z,76.59
2023-01-13T15:40:53.251Z,77.35
2023-01-13T15:43:42.250Z,78.42
2023-01-13T15:46:38.979Z,78.50
2023-01-13T15:49:27.704Z,78.52
2023-01-13T15:51:55.693Z,77.81
2023-01-13T15:54:24.829Z,78.30
2023-01-13T15:56:53.817Z,78.23
2023-01-13T15:59:26.364Z,78.71
2023-01-13T16:01:55.138Z,78.60
2023-01-13T16:04:23.399Z,78.49
2023-01-13T16:06:52.058Z,78.55
2023-01-13T16:09:20.199Z,78.68
2023-01-13T16:11:48.266Z,79.47
2023-01-13T16:14:16.437Z,79.35
2023-01-13T16:16:44.669Z,79.36
2023-01-13T16:19:12.880Z,79.72
2023-01-13T16:21:41.523Z,79.31
2023-01-13T16:24:09.635Z,79.18
2023-01-13T16:26:39.016Z,79.64
2023-01-13T16:29:08.190Z,79.55
2023-01-13T16:31:36.705Z,79.65
2023-01-13T16:34:05.703Z,79.80
2023-01-13T16:36:36.515Z,79.89
2023-01-13T16:39:05.348Z,79.84
2023-01-13T16:41:33.818Z,80.02
2023-01-13T16:44:06.100Z,80.16
2023-01-13T16:46:34.392Z,80.28
2023-01-13T16:49:05.353Z,80.43
2023-01-13T16:51:33.789Z,80.29
2023-01-13T16:54:01.778Z,79.97
2023-01-13T16:56:32.472Z,80.04
2023-01-13T16:59:05.863Z,80.26
2023-01-13T17:01:35.285Z,80.23
2023-01-13T17:04:03.416Z,80.21
2023-01-13T17:06:41.903Z,80.62
2023-01-13T17:09:19.249Z,80.69
2023-01-13T17:11:47.324Z,80.63
2023-01-13T17:14:18.907Z,80.51
2023-01-13T17:16:47.796Z,80.33
2023-01-13T17:19:16.851Z,80.64
2023-01-13T17:21:47.044Z,80.70
2023-01-13T17:24:15.306Z,80.34
2023-01-13T17:26:47.251Z,80.36
2023-01-13T17:29:18.393Z,80.64
2023-01-13T17:31:46.534Z,80.71
2023-01-13T17:34:14.834Z,80.84
2023-01-13T17:36:43.512Z,80.79
2023-01-13T17:39:20.408Z,80.83
2023-01-13T17:41:48.533Z,80.81
2023-01-13T17:44:19.509Z,80.62
2023-01-13T17:46:47.707Z,80.54
2023-01-13T17:49:17.858Z,80.67
2023-01-13T17:51:48.864Z,80.91
2023-01-13T17:54:17.819Z,81.16
2023-01-13T17:56:45.859Z,81.88
2023-01-13T17:59:15.675Z,81.85
2023-01-13T18:01:44.052Z,82.11
2023-01-13T18:04:24.914Z,81.88
2023-01-13T18:06:53.644Z,82.21
2023-01-13T18:09:22.900Z,82.28
2023-01-13T18:11:50.927Z,82.06
2023-01-13T18:14:22.325Z,81.98
2023-01-13T18:16:51.233Z,82.45
2023-01-13T18:19:37.899Z,82.94
2023-01-13T18:22:24.300Z,83.03
2023-01-13T18:25:11.073Z,82.93
2023-01-13T18:27:41.794Z,82.70
2023-01-13T18:30:10.741Z,82.23
2023-01-13T18:32:38.855Z,82.49
2023-01-13T18:35:10.436Z,83.18
2023-01-13T18:37:42.015Z,83.09
2023-01-13T18:40:13.338Z,83.18
2023-01-13T18:42:56.526Z,82.98
2023-01-13T18:45:27.843Z,82.59
2023-01-13T18:47:58.490Z,82.31
2023-01-13T18:50:28.305Z,82.44
2023-01-13T18:52:57.145Z,82.96
2023-01-13T18:55:25.761Z,82.92
2023-01-13T18:57:54.627Z,82.54
2023-01-13T19:00:23.245Z,82.59
2023-01-13T19:05:36.119Z,82.80
2023-01-13T19:08:04.891Z,82.74
2023-01-13T19:10:33.392Z,83.25
2023-01-13T19:13:01.939Z,83.26
2023-01-13T19:15:30.247Z,83.89
2023-01-13T19:17:58.458Z,83.76
2023-01-13T19:20:26.785Z,84.24
2023-01-13T19:22:55.052Z,85.23
2023-01-13T19:25:23.147Z,85.14
2023-01-13T19:27:51.178Z,84.79
2023-01-13T19:30:19.511Z,84.77
2023-01-13T19:32:47.637Z,84.86
2023-01-13T19:35:18.122Z,85.08
2023-01-13T19:37:46.350Z,85.14
2023-01-13T19:40:14.680Z,84.45
2023-01-13T19:43:02.746Z,84.78
2023-01-13T19:45:32.235Z,84.34
2023-01-13T19:48:02.010Z,84.70
2023-01-13T19:50:30.140Z,84.67
2023-01-13T19:52:58.191Z,85.18
2023-01-13T19:55:26.320Z,85.45
2023-01-13T19:57:54.376Z,85.81
2023-01-13T20:00:23.879Z,85.68
2023-01-13T20:02:53.361Z,85.59
2023-01-13T20:05:24.406Z,85.55
2023-01-13T20:07:52.948Z,85.52
2023-01-13T20:10:23.890Z,85.50
2023-01-13T20:12:52.117Z,85.43
2023-01-13T20:15:20.256Z,85.60
2023-01-13T20:17:48.396Z,85.29
2023-01-13T20:20:18.628Z,84.81
2023-01-13T20:22:47.074Z,84.75
2023-01-13T20:25:17.151Z,85.38
2023-01-13T20:27:46.712Z,85.70
2023-01-13T20:30:15.639Z,85.12
2023-01-13T20:32:44.175Z,85.19
2023-01-13T20:35:12.520Z,85.57
2023-01-13T20:37:42.308Z,85.78
2023-01-13T20:40:14.244Z,85.57
2023-01-13T20:42:45.204Z,85.08
2023-01-13T20:45:17.804Z,85.47
2023-01-13T20:47:46.269Z,85.26
2023-01-13T20:50:15.516Z,85.58
2023-01-13T20:52:44.498Z,85.64
2023-01-13T20:55:13.644Z,85.68
2023-01-13T20:57:42.973Z,86.31
2023-01-13T21:00:11.519Z,86.41
2023-01-13T21:02:41.284Z,86.05
2023-01-13T21:05:10.244Z,86.55
2023-01-13T21:07:38.265Z,86.50
2023-01-13T21:10:06.656Z,86.58
2023-01-13T21:12:53.331Z,86.73
2023-01-13T21:15:22.799Z,86.88
2023-01-13T21:18:10.582Z,86.72
2023-01-13T21:20:39.712Z,86.12
2023-01-13T21:23:08.282Z,85.58
2023-01-13T21:25:39.589Z,85.77
2023-01-13T21:28:10.427Z,85.62
2023-01-13T21:30:39.451Z,85.19
2023-01-13T21:33:07.894Z,85.53
2023-01-13T21:35:38.064Z,85.41
2023-01-13T21:38:06.387Z,86.40
2023-01-13T21:40:34.922Z,86.81
2023-01-13T21:43:21.413Z,86.83
2023-01-13T21:46:08.361Z,86.85
2023-01-13T21:48:36.494Z,87.16
2023-01-13T21:51:05.039Z,86.64
2023-01-13T21:53:33.267Z,86.20
2023-01-13T21:56:01.353Z,86.31
2023-01-13T21:58:29.364Z,87.66
2023-01-13T22:01:01.369Z,88.29
2023-01-13T22:03:29.722Z,88.07
2023-01-13T22:05:57.753Z,87.51
2023-01-13T22:08:25.693Z,87.88
2023-01-13T22:11:00.273Z,88.10
2023-01-13T22:13:58.318Z,87.45
2023-01-13T22:16:26.827Z,86.77
2023-01-13T22:18:55.110Z,87.15
2023-01-13T22:21:23.142Z,87.57
2023-01-13T22:23:51.458Z,87.70
2023-01-13T22:26:19.705Z,87.96
2023-01-13T22:28:47.770Z,88.17
2023-01-13T22:31:18.591Z,87.82
2023-01-13T22:33:47.194Z,88.08
2023-01-13T22:36:15.424Z,88.28
2023-01-13T22:38:43.461Z,88.48
2023-01-13T22:41:11.747Z,88.35
2023-01-13T22:43:39.916Z,87.78
2023-01-13T22:46:12.789Z,87.53
2023-01-13T22:48:41.415Z,87.78
2023-01-13T22:51:15.616Z,87.57
2023-01-13T22:53:43.792Z,88.34
2023-01-13T22:56:21.028Z,88.25
2023-01-13T22:58:56.958Z,88.18
2023-01-13T23:01:26.884Z,88.09
2023-01-13T23:03:55.396Z,87.81
2023-01-13T23:06:25.555Z,87.65
2023-01-13T23:08:54.239Z,87.55
2023-01-13T23:11:24.975Z,87.48
2023-01-13T23:14:08.228Z,87.09
2023-01-13T23:16:38.304Z,87.01
2023-01-13T23:19:07.484Z,87.07
2023-01-13T23:21:38.045Z,87.18
2023-01-13T23:24:07.359Z,87.08
2023-01-13T23:26:36.127Z,87.04
2023-01-13T23:29:07.833Z,86.91
2023-01-13T23:31:35.924Z,86.89
2023-01-13T23:34:04.167Z,86.40
2023-01-13T23:36:32.368Z,86.25
2023-01-13T23:39:00.424Z,86.51
2023-01-13T23:41:28.619Z,86.36
2023-01-13T23:43:59.584Z,86.46
2023-01-13T23:46:30.022Z,86.10
2023-01-13T23:48:58.285Z,85.92
2023-01-13T23:51:27.616Z,86.36
2023-01-13T23:53:56.392Z,86.57
2023-01-13T23:56:29.822Z,86.69
2023-01-13T23:58:58.265Z,86.57
